Time;durP1;ratioP1;P1;durP2;ratioP2;P2;SDS_P1;SDS_P2;PMS_P1;PMS_P2;Temp;Humidity;BMP_temperature;BMP_pressure;BME280_temperature;BME280_humidity;BME280_pressure;Samples;Min_cycle;Max_cycle;Signal;HPM_P1;HPM_P2
2023/02/02 00:01:25;;;;;;;14.18;8.70;;;12.20;62.60;;;;;;4999616;28;20235;-80
2023/02/02 00:03:52;;;;;;;11.80;7.95;;;12.20;62.40;;;;;;4989274;28;20413;-80
2023/02/02 00:06:20;;;;;;;12.95;7.95;;;12.20;62.40;;;;;;5005652;28;20129;-81
2023/02/02 00:08:46;;;;;;;11.38;7.72;;;12.30;62.30;;;;;;5004420;28;20381;-81
2023/02/02 00:11:12;;;;;;;14.65;8.65;;;12.30;62.10;;;;;;4999601;28;20084;-81
2023/02/02 00:13:39;;;;;;;14.75;7.90;;;12.20;62.00;;;;;;5005624;28;20488;-81
2023/02/02 00:16:29;;;;;;;12.93;7.80;;;12.30;61.90;;;;;;5003200;28;20409;-81
2023/02/02 00:18:57;;;;;;;11.77;8.20;;;12.30;62.00;;;;;;5000814;28;20044;-81
2023/02/02 00:21:24;;;;;;;12.98;8.20;;;12.20;62.10;;;;;;4999741;28;20413;-80
2023/02/02 00:23:50;;;;;;;14.30;8.38;;;12.30;62.10;;;;;;5003752;28;20042;-81
2023/02/02 00:26:16;;;;;;;12.63;8.35;;;12.30;61.80;;;;;;5001334;28;20129;-81
2023/02/02 00:28:43;;;;;;;12.25;7.95;;;12.20;61.80;;;;;;5000318;28;20133;-80
2023/02/02 00:31:09;;;;;;;13.07;8.68;;;12.20;61.80;;;;;;5000568;28;20200;-80
2023/02/02 00:33:35;;;;;;;13.60;8.73;;;12.30;61.80;;;;;;5001030;28;20576;-82
2023/02/02 00:36:01;;;;;;;13.73;8.65;;;12.30;61.60;;;;;;5001381;28;20084;-78
2023/02/02 00:38:27;;;;;;;12.05;8.43;;;12.30;61.50;;;;;;5001025;28;20042;-80
2023/02/02 00:40:53;;;;;;;13.80;8.38;;;12.30;61.50;;;;;;5000357;28;20452;-79
2023/02/02 00:43:19;;;;;;;13.50;8.68;;;12.20;61.40;;;;;;5001345;28;20730;-79
2023/02/02 00:45:46;;;;;;;11.80;7.38;;;12.20;61.50;;;;;;4984110;28;20049;-79
2023/02/02 00:48:12;;;;;;;15.07;8.95;;;12.20;61.60;;;;;;5000453;28;20164;-80
2023/02/02 00:50:38;;;;;;;13.00;8.50;;;12.20;61.80;;;;;;4983572;28;20133;-80
2023/02/02 00:53:04;;;;;;;13.20;8.15;;;12.20;61.60;;;;;;4995296;28;20034;-78
2023/02/02 00:55:30;;;;;;;13.68;8.18;;;12.30;61.70;;;;;;4999887;28;20062;-78
2023/02/02 00:57:56;;;;;;;13.07;8.60;;;12.20;61.80;;;;;;4999155;28;20073;-78
2023/02/02 01:00:24;;;;;;;12.68;7.82;;;12.30;61.90;;;;;;5000224;28;20038;-78
2023/02/02 01:02:52;;;;;;;16.08;8.70;;;12.30;61.90;;;;;;4999740;28;20026;-78
2023/02/02 01:05:19;;;;;;;13.73;9.07;;;12.30;61.80;;;;;;5018347;28;20030;-80
2023/02/02 01:07:46;;;;;;;13.88;8.38;;;12.30;61.70;;;;;;5001624;28;20049;-79
2023/02/02 01:10:17;;;;;;;11.77;7.72;;;12.30;61.60;;;;;;5001611;28;20520;-80
2023/02/02 01:12:43;;;;;;;13.60;8.60;;;12.30;61.70;;;;;;5003524;28;20092;-80
2023/02/02 01:15:11;;;;;;;12.73;8.40;;;12.30;61.70;;;;;;4986171;28;20370;-79
2023/02/02 01:17:37;;;;;;;14.57;8.98;;;12.20;61.40;;;;;;5001331;28;20030;-79
2023/02/02 01:20:04;;;;;;;13.55;8.10;;;12.30;61.40;;;;;;5000548;28;20049;-80
2023/02/02 01:22:32;;;;;;;13.93;8.30;;;12.20;61.30;;;;;;4999939;28;20031;-80
2023/02/02 01:24:59;;;;;;;11.75;8.00;;;12.20;61.20;;;;;;4998209;28;20034;-79
2023/02/02 01:27:25;;;;;;;12.75;8.15;;;12.30;61.40;;;;;;4998777;28;20038;-79
2023/02/02 01:29:51;;;;;;;13.93;8.60;;;12.20;61.40;;;;;;5001534;28;20026;-79
2023/02/02 01:32:17;;;;;;;12.60;7.82;;;12.30;61.30;;;;;;5016568;28;20456;-80
2023/02/02 01:34:45;;;;;;;14.45;8.63;;;12.30;61.30;;;;;;4999310;28;20383;-80
2023/02/02 01:37:11;;;;;;;14.30;8.77;;;12.30;61.20;;;;;;5003795;28;20038;-80
2023/02/02 01:39:37;;;;;;;14.15;8.13;;;12.20;61.10;;;;;;5000739;28;20033;-80
2023/02/02 01:42:10;;;;;;;11.73;8.05;;;12.30;61.20;;;;;;4982171;28;20044;-80
2023/02/02 01:45:28;;;;;;;11.57;7.97;;;12.30;61.10;;;;;;5000844;28;20038;-80
2023/02/02 01:47:57;;;;;;;12.50;7.93;;;12.30;61.00;;;;;;4998633;28;20523;-80
2023/02/02 01:50:29;;;;;;;13.88;8.82;;;12.20;61.00;;;;;;4997570;28;20042;-81
2023/02/02 01:52:59;;;;;;;14.45;8.63;;;12.30;60.90;;;;;;5000629;28;20697;-81
2023/02/02 01:55:28;;;;;;;14.70;9.00;;;12.20;60.80;;;;;;4997979;28;20412;-81
2023/02/02 01:57:59;;;;;;;14.27;8.35;;;12.20;61.00;;;;;;4998051;28;20125;-81
2023/02/02 02:00:26;;;;;;;12.60;8.27;;;12.20;61.00;;;;;;4987070;28;20041;-80
2023/02/02 02:03:00;;;;;;;12.32;7.60;;;12.20;60.90;;;;;;5000283;28;20031;-81
2023/02/02 02:05:32;;;;;;;15.23;8.98;;;12.20;61.20;;;;;;4997900;28;20048;-80
2023/02/02 02:08:14;;;;;;;13.73;8.63;;;12.20;61.10;;;;;;4995516;28;20038;-81
2023/02/02 02:10:41;;;;;;;13.52;8.48;;;12.20;61.20;;;;;;4993552;28;20121;-80
2023/02/02 02:13:07;;;;;;;15.48;9.65;;;12.20;61.10;;;;;;4986806;28;20129;-81
2023/02/02 02:18:48;;;;;;;14.23;8.80;;;12.20;61.10;;;;;;4982765;28;20029;-81
2023/02/02 02:27:19;;;;;;;15.00;8.73;;;12.20;60.80;;;;;;4997070;28;20406;-80
2023/02/02 02:30:07;;;;;;;15.60;8.90;;;12.20;60.60;;;;;;5000235;28;20065;-80
2023/02/02 02:32:49;;;;;;;13.15;8.38;;;12.20;60.60;;;;;;4999519;28;20041;-80
2023/02/02 02:35:33;;;;;;;14.93;9.32;;;12.20;60.70;;;;;;4983750;28;20031;-80
2023/02/02 02:38:10;;;;;;;12.98;8.23;;;12.20;60.70;;;;;;4997579;28;20501;-80
2023/02/02 02:40:36;;;;;;;15.45;8.82;;;12.20;60.60;;;;;;5000640;28;20034;-80
2023/02/02 02:43:22;;;;;;;14.02;8.73;;;12.20;60.70;;;;;;5015034;28;20115;-80
2023/02/02 02:45:49;;;;;;;13.20;8.43;;;12.20;60.50;;;;;;5003873;28;20054;-82
2023/02/02 02:48:15;;;;;;;15.45;8.80;;;12.20;60.40;;;;;;4988131;28;20096;-81
2023/02/02 02:50:41;;;;;;;14.35;8.40;;;12.20;60.30;;;;;;4985357;28;20027;-80
2023/02/02 02:53:12;;;;;;;15.20;8.57;;;12.20;60.30;;;;;;5000081;28;20061;-81
2023/02/02 02:56:05;;;;;;;16.17;9.60;;;12.20;60.30;;;;;;5000221;28;20041;-82
2023/02/02 02:58:44;;;;;;;15.57;9.63;;;12.20;60.20;;;;;;4997998;28;20038;-80
2023/02/02 03:01:33;;;;;;;17.90;9.02;;;12.20;60.20;;;;;;4970443;28;20041;-79
2023/02/02 03:04:23;;;;;;;15.95;9.07;;;12.20;60.30;;;;;;5000123;28;20041;-78
2023/02/02 03:06:58;;;;;;;14.50;9.20;;;12.20;60.40;;;;;;5014829;28;20043;-78
2023/02/02 03:09:33;;;;;;;15.00;8.70;;;12.20;60.40;;;;;;5003648;28;20042;-79
2023/02/02 03:12:00;;;;;;;17.95;9.00;;;12.20;60.40;;;;;;4999677;28;20418;-77
2023/02/02 03:14:26;;;;;;;15.30;8.50;;;12.20;60.30;;;;;;4999680;28;20030;-79
2023/02/02 03:16:52;;;;;;;14.48;8.90;;;12.20;60.50;;;;;;5000919;28;20034;-78
2023/02/02 03:19:19;;;;;;;16.25;8.65;;;12.20;60.50;;;;;;4999129;28;20030;-78
2023/02/02 03:21:44;;;;;;;15.98;8.68;;;12.20;60.50;;;;;;4999587;28;20061;-78
2023/02/02 03:24:10;;;;;;;14.63;8.95;;;12.20;60.40;;;;;;5005922;28;20058;-79
2023/02/02 03:26:36;;;;;;;14.23;9.13;;;12.20;60.40;;;;;;5002666;28;20128;-79
2023/02/02 03:29:03;;;;;;;15.38;9.32;;;12.20;60.20;;;;;;5002453;28;20038;-78
2023/02/02 03:31:29;;;;;;;17.08;9.05;;;12.20;60.10;;;;;;5000026;28;20034;-79
2023/02/02 03:33:55;;;;;;;14.88;9.20;;;12.20;60.10;;;;;;4985909;28;20128;-85
2023/02/02 03:36:22;;;;;;;16.33;9.30;;;12.20;60.10;;;;;;4988039;28;20038;-78
2023/02/02 03:38:48;;;;;;;15.73;9.35;;;12.20;60.00;;;;;;5004879;28;20124;-81
2023/02/02 03:41:14;;;;;;;18.23;10.73;;;12.20;59.90;;;;;;5003224;28;20627;-80
2023/02/02 03:43:40;;;;;;;15.68;9.38;;;12.20;59.80;;;;;;4989768;28;20266;-81
2023/02/02 03:46:06;;;;;;;17.33;9.85;;;12.20;59.90;;;;;;5016488;28;20049;-81
2023/02/02 03:48:35;;;;;;;16.52;9.68;;;12.20;59.80;;;;;;5004689;28;20025;-82
2023/02/02 03:51:10;;;;;;;18.23;10.20;;;12.20;60.00;;;;;;5003419;28;20605;-81
2023/02/02 03:53:36;;;;;;;16.58;9.65;;;12.20;60.00;;;;;;5002024;28;20041;-82
2023/02/02 03:56:03;;;;;;;15.82;9.48;;;12.20;60.00;;;;;;5001642;28;20073;-80
2023/02/02 03:58:29;;;;;;;16.42;9.60;;;12.20;59.80;;;;;;5001244;28;20117;-80
2023/02/02 04:01:02;;;;;;;16.92;10.05;;;12.20;59.80;;;;;;4986586;28;20121;-81
2023/02/02 04:03:28;;;;;;;16.00;9.27;;;12.20;59.70;;;;;;4984363;28;20041;-81
2023/02/02 04:05:54;;;;;;;17.48;9.98;;;12.20;59.60;;;;;;5002432;28;20034;-81
2023/02/02 04:08:20;;;;;;;15.05;9.02;;;12.20;59.60;;;;;;5004173;28;20038;-83
2023/02/02 04:10:46;;;;;;;18.10;10.35;;;12.20;59.60;;;;;;5016874;28;20045;-84
2023/02/02 04:13:12;;;;;;;15.45;9.27;;;12.20;59.50;;;;;;5003598;28;20057;-82
2023/02/02 04:15:39;;;;;;;17.40;9.80;;;12.20;59.70;;;;;;5002870;28;20029;-80
2023/02/02 04:18:05;;;;;;;15.55;9.48;;;12.20;59.90;;;;;;5002011;28;20140;-83
2023/02/02 04:20:31;;;;;;;14.80;9.25;;;12.20;60.00;;;;;;5001171;28;20124;-84
2023/02/02 04:22:57;;;;;;;15.32;9.68;;;12.20;60.10;;;;;;5006478;28;20041;-83
2023/02/02 04:25:23;;;;;;;14.77;9.02;;;12.20;60.00;;;;;;5002673;28;20085;-83
2023/02/02 04:27:49;;;;;;;16.00;9.38;;;12.20;60.00;;;;;;5016757;28;20038;-84
2023/02/02 04:30:15;;;;;;;21.27;10.25;;;12.20;60.00;;;;;;4988737;28;20030;-84
2023/02/02 04:32:41;;;;;;;12.95;8.55;;;12.20;60.60;;;;;;4974119;28;20034;-88
2023/02/02 04:35:08;;;;;;;15.18;8.88;;;12.20;60.00;;;;;;4989545;28;20041;-82
2023/02/02 04:37:34;;;;;;;15.63;9.55;;;12.20;60.00;;;;;;5000739;28;20034;-92
2023/02/02 04:40:00;;;;;;;16.92;9.60;;;12.20;59.90;;;;;;4971078;28;20026;-87
2023/02/02 04:42:26;;;;;;;15.88;10.25;;;12.20;60.20;;;;;;4994352;28;20709;-89
2023/02/02 04:44:52;;;;;;;16.23;10.18;;;12.20;60.00;;;;;;5005659;28;20057;-82
2023/02/02 04:47:18;;;;;;;20.42;10.38;;;12.20;60.10;;;;;;5002611;28;20049;-88
2023/02/02 04:49:44;;;;;;;19.13;10.27;;;12.20;60.30;;;;;;4990918;28;20038;-87
2023/02/02 04:52:10;;;;;;;17.73;11.02;;;12.20;60.50;;;;;;4986303;28;20097;-85
2023/02/02 04:54:36;;;;;;;17.40;10.35;;;12.20;61.00;;;;;;4988498;28;20032;-87
2023/02/02 04:57:02;;;;;;;21.35;11.45;;;12.20;61.50;;;;;;5000918;28;20033;-86
2023/02/02 04:59:28;;;;;;;19.45;11.13;;;12.20;61.80;;;;;;5016179;28;20044;-88
2023/02/02 05:01:59;;;;;;;18.17;11.32;;;12.20;62.00;;;;;;5001877;28;20034;-89
2023/02/02 05:04:25;;;;;;;19.27;11.57;;;12.20;62.10;;;;;;4989978;28;20436;-89
2023/02/02 05:06:51;;;;;;;19.65;11.57;;;12.20;62.20;;;;;;4988588;28;20148;-88
2023/02/02 05:09:17;;;;;;;17.48;10.70;;;12.20;62.30;;;;;;5001777;28;20136;-90
2023/02/02 05:11:43;;;;;;;19.13;11.30;;;12.20;62.40;;;;;;4988802;28;20128;-89
2023/02/02 05:14:10;;;;;;;16.63;10.48;;;12.20;62.40;;;;;;4989278;28;20030;-90
2023/02/02 05:16:36;;;;;;;18.65;11.18;;;12.20;62.40;;;;;;5000115;28;20036;-89
2023/02/02 05:19:02;;;;;;;20.42;10.50;;;12.20;62.20;;;;;;5004026;28;20034;-89
2023/02/02 05:21:28;;;;;;;18.38;10.80;;;12.20;62.00;;;;;;4999727;28;20029;-87
2023/02/02 05:23:54;;;;;;;17.58;9.68;;;12.20;62.00;;;;;;4984053;28;20510;-89
2023/02/02 05:26:23;;;;;;;17.17;9.93;;;12.20;62.10;;;;;;4988663;28;20114;-89
2023/02/02 05:28:49;;;;;;;16.10;9.50;;;12.20;62.10;;;;;;4968107;28;20034;-89
2023/02/02 05:31:15;;;;;;;16.60;10.10;;;12.20;61.80;;;;;;4999896;28;20065;-88
2023/02/02 05:33:41;;;;;;;15.05;9.50;;;12.20;61.80;;;;;;4994447;28;20097;-89
2023/02/02 05:36:07;;;;;;;16.35;9.13;;;12.20;61.80;;;;;;5004748;28;20033;-89
2023/02/02 05:38:34;;;;;;;16.85;9.93;;;12.20;61.50;;;;;;4989659;28;20042;-89
2023/02/02 05:41:00;;;;;;;16.95;10.27;;;12.20;61.50;;;;;;5002186;28;20034;-88
2023/02/02 05:43:27;;;;;;;15.63;9.55;;;12.20;61.60;;;;;;4985208;28;20042;-86
2023/02/02 05:45:53;;;;;;;13.93;8.88;;;12.20;61.20;;;;;;4997775;28;20045;-88
2023/02/02 05:48:20;;;;;;;18.33;8.85;;;12.20;61.10;;;;;;4979451;28;20026;-82
2023/02/02 05:51:18;;;;;;;20.90;11.68;;;12.20;61.00;;;;;;4983367;28;20125;-90
2023/02/02 05:53:44;;;;;;;17.63;11.40;;;12.10;56.70;;;;;;4981342;28;20602;-90
2023/02/02 05:56:11;;;;;;;20.58;12.00;;;11.80;53.90;;;;;;4978734;28;20112;-81
2023/02/02 05:58:37;;;;;;;22.70;13.50;;;11.50;53.10;;;;;;4991062;28;20509;-88
2023/02/02 06:01:03;;;;;;;21.25;12.23;;;11.20;52.80;;;;;;4993595;28;20038;-89
2023/02/02 06:03:29;;;;;;;21.02;13.43;;;10.90;53.40;;;;;;4995249;28;20065;-91
2023/02/02 06:05:55;;;;;;;20.75;12.75;;;10.60;53.80;;;;;;4978497;28;20270;-90
2023/02/02 06:08:21;;;;;;;21.65;12.60;;;10.30;54.10;;;;;;5004243;28;20033;-89
2023/02/02 06:10:47;;;;;;;19.73;12.25;;;10.20;54.30;;;;;;4979954;28;20046;-89
2023/02/02 06:13:13;;;;;;;18.60;11.75;;;9.90;54.90;;;;;;5001623;28;20057;-89
2023/02/02 06:15:41;;;;;;;20.70;12.15;;;9.80;55.00;;;;;;4987511;28;20045;-85
2023/02/02 06:18:07;;;;;;;20.35;12.70;;;9.70;55.10;;;;;;4987804;28;20034;-86
2023/02/02 06:20:33;;;;;;;20.90;12.55;;;9.50;55.10;;;;;;4999296;28;20030;-87
2023/02/02 06:22:59;;;;;;;24.33;13.75;;;9.30;55.50;;;;;;4998837;28;20030;-87
2023/02/02 06:25:26;;;;;;;21.38;12.32;;;9.30;55.80;;;;;;4999214;28;20038;-87
2023/02/02 06:27:59;;;;;;;20.83;13.43;;;9.20;55.90;;;;;;5002429;28;20065;-87
2023/02/02 06:30:26;;;;;;;23.75;13.40;;;9.00;56.20;;;;;;4986655;28;20091;-86
2023/02/02 06:32:52;;;;;;;21.55;12.77;;;8.90;56.40;;;;;;4989986;28;20040;-87
2023/02/02 06:35:18;;;;;;;21.75;12.95;;;8.90;56.20;;;;;;4969766;28;20045;-87
2023/02/02 06:37:45;;;;;;;22.15;12.98;;;8.80;56.30;;;;;;4979545;28;20038;-88
2023/02/02 06:40:12;;;;;;;21.42;12.90;;;8.70;56.50;;;;;;4978744;28;20041;-87
2023/02/02 06:42:39;;;;;;;21.33;12.45;;;8.60;56.50;;;;;;4990257;28;20038;-87
2023/02/02 06:45:06;;;;;;;21.35;12.65;;;8.50;56.60;;;;;;4985367;28;20033;-88
2023/02/02 06:47:32;;;;;;;21.00;12.90;;;8.40;56.80;;;;;;5001502;28;20042;-87
2023/02/02 06:49:58;;;;;;;21.65;13.05;;;8.30;57.00;;;;;;4987161;28;20030;-86
2023/02/02 06:52:24;;;;;;;20.10;12.75;;;8.30;57.20;;;;;;4982436;28;20460;-87
2023/02/02 06:54:50;;;;;;;22.17;12.82;;;8.20;57.30;;;;;;5017259;28;20592;-85
2023/02/02 06:57:16;;;;;;;23.08;13.43;;;8.20;57.30;;;;;;4991862;28;20053;-84
2023/02/02 06:59:42;;;;;;;21.65;13.27;;;8.10;57.20;;;;;;5002355;28;20046;-86
2023/02/02 07:02:12;;;;;;;20.25;11.77;;;8.10;57.40;;;;;;4990298;28;20595;-84
2023/02/02 07:04:38;;;;;;;23.85;12.60;;;8.00;57.80;;;;;;4986455;28;20141;-84
2023/02/02 07:07:04;;;;;;;22.00;13.15;;;7.90;57.80;;;;;;5003140;28;20127;-85
2023/02/02 07:09:34;;;;;;;25.48;13.48;;;7.80;58.00;;;;;;4985860;28;20132;-88
2023/02/02 07:12:01;;;;;;;21.38;12.90;;;7.80;57.90;;;;;;4972744;28;20042;-87
2023/02/02 07:14:27;;;;;;;23.45;12.43;;;7.80;58.20;;;;;;4988465;28;20038;-87
2023/02/02 07:16:53;;;;;;;23.27;13.02;;;7.70;58.30;;;;;;4988889;28;20038;-84
2023/02/02 07:19:19;;;;;;;21.90;12.35;;;7.60;58.30;;;;;;4987970;28;20042;-87
2023/02/02 07:21:45;;;;;;;22.38;13.32;;;7.60;58.00;;;;;;5001833;28;20072;-83
2023/02/02 07:24:11;;;;;;;23.85;13.57;;;7.60;58.20;;;;;;4989292;28;20053;-83
2023/02/02 07:26:37;;;;;;;24.23;12.77;;;7.50;58.40;;;;;;5002104;28;20057;-80
2023/02/02 07:29:04;;;;;;;25.05;14.23;;;7.50;58.50;;;;;;4998398;28;20478;-79
2023/02/02 07:31:30;;;;;;;23.00;12.75;;;7.50;58.40;;;;;;4999140;28;20053;-82
2023/02/02 07:33:56;;;;;;;24.65;13.40;;;7.50;58.70;;;;;;4984955;28;20035;-83
2023/02/02 07:36:23;;;;;;;20.77;12.60;;;7.50;58.80;;;;;;4961569;28;20141;-83
2023/02/02 07:38:56;;;;;;;20.35;12.50;;;7.50;59.20;;;;;;4988247;28;20031;-84
2023/02/02 07:41:22;;;;;;;22.95;13.65;;;7.50;59.30;;;;;;4999843;28;20069;-84
2023/02/02 07:43:49;;;;;;;23.13;12.93;;;7.40;59.10;;;;;;4999246;28;20034;-84
2023/02/02 07:46:16;;;;;;;25.88;13.50;;;7.40;59.20;;;;;;4982246;28;20050;-81
2023/02/02 07:48:43;;;;;;;22.20;13.50;;;;;;;;;;4999369;28;20034;-76
2023/02/02 07:51:12;;;;;;;21.08;12.15;;;7.40;58.70;;;;;;5000827;28;20034;-82
2023/02/02 07:53:41;;;;;;;21.70;11.02;;;7.50;60.20;;;;;;4986846;28;20474;-81
2023/02/02 07:56:13;;;;;;;16.77;9.93;;;7.60;61.20;;;;;;5017166;28;20069;-80
2023/02/02 07:58:39;;;;;;;17.40;10.13;;;7.90;61.50;;;;;;5000429;28;20672;-79
2023/02/02 08:01:08;;;;;;;16.77;10.63;;;8.10;61.50;;;;;;5000952;28;20042;-79
2023/02/02 08:03:35;;;;;;;25.42;10.05;;;8.20;61.30;;;;;;4998363;28;20349;-80
2023/02/02 08:06:16;;;;;;;17.52;9.20;;;8.40;61.10;;;;;;5002618;28;20049;-80
2023/02/02 08:08:42;;;;;;;14.93;8.95;;;8.60;61.10;;;;;;5002945;28;20121;-81
2023/02/02 08:11:10;;;;;;;15.70;8.88;;;8.70;60.90;;;;;;4999349;28;20192;-82
2023/02/02 08:13:37;;;;;;;15.32;9.45;;;8.90;60.80;;;;;;5000553;28;20079;-83
2023/02/02 08:16:03;;;;;;;16.83;9.65;;;9.00;60.70;;;;;;4985899;28;20046;-84
2023/02/02 08:18:29;;;;;;;13.52;8.70;;;9.10;61.20;;;;;;4981535;28;20045;-80
2023/02/02 08:20:59;;;;;;;13.45;8.20;;;9.20;60.40;;;;;;4982653;28;20044;-81
2023/02/02 08:23:26;;;;;;;12.43;7.97;;;9.40;60.30;;;;;;4995337;28;20110;-81
2023/02/02 08:25:53;;;;;;;13.10;8.55;;;9.50;60.30;;;;;;4992085;28;20038;-81
2023/02/02 08:28:19;;;;;;;15.23;9.30;;;9.60;60.10;;;;;;5003565;28;20030;-81
2023/02/02 08:30:45;;;;;;;14.25;9.00;;;9.70;60.00;;;;;;4999255;28;20049;-82
2023/02/02 08:33:12;;;;;;;14.85;8.65;;;9.80;60.00;;;;;;5000420;28;20034;-83
2023/02/02 08:35:42;;;;;;;14.50;8.90;;;9.80;60.40;;;;;;4972136;28;20034;-82
2023/02/02 08:38:08;;;;;;;14.43;8.23;;;9.90;59.80;;;;;;5021376;28;20022;-84
2023/02/02 08:40:34;;;;;;;15.27;8.43;;;10.00;59.70;;;;;;5013887;28;20022;-83
2023/02/02 08:43:00;;;;;;;14.77;8.25;;;10.10;59.60;;;;;;5027029;28;20133;-83
2023/02/02 08:45:26;;;;;;;14.38;8.68;;;10.10;59.40;;;;;;5042033;28;20033;-82
2023/02/02 08:47:53;;;;;;;13.02;7.65;;;10.30;59.40;;;;;;5041735;28;20030;-82
2023/02/02 08:50:19;;;;;;;13.57;8.85;;;10.30;59.30;;;;;;5025914;28;20030;-82
2023/02/02 08:52:45;;;;;;;12.70;8.13;;;10.40;59.30;;;;;;5043093;28;20044;-81
2023/02/02 08:55:11;;;;;;;12.82;7.70;;;10.50;59.20;;;;;;5009357;28;20038;-81
2023/02/02 08:57:37;;;;;;;15.52;8.40;;;10.50;59.10;;;;;;5028583;28;20042;-80
2023/02/02 09:00:05;;;;;;;12.77;7.30;;;10.60;58.70;;;;;;5026626;28;20088;-81
2023/02/02 09:02:31;;;;;;;13.57;8.00;;;10.60;59.00;;;;;;5038614;28;20052;-80
2023/02/02 09:04:57;;;;;;;12.85;8.02;;;10.70;59.10;;;;;;4998254;28;20806;-81
2023/02/02 09:07:23;;;;;;;13.38;8.52;;;10.70;59.00;;;;;;4999111;28;20037;-79
2023/02/02 09:09:51;;;;;;;11.45;7.55;;;10.80;58.80;;;;;;5000221;28;20033;-79
2023/02/02 09:12:17;;;;;;;13.18;8.07;;;10.80;58.60;;;;;;5000035;28;20531;-79
2023/02/02 09:14:43;;;;;;;13.95;8.15;;;10.90;58.40;;;;;;4999057;28;20045;-80
2023/02/02 09:17:09;;;;;;;11.57;7.55;;;10.90;58.40;;;;;;5000032;28;20039;-80
2023/02/02 09:19:35;;;;;;;15.13;8.85;;;10.90;58.20;;;;;;4999181;28;20030;-80
2023/02/02 09:22:01;;;;;;;12.73;8.27;;;11.00;58.20;;;;;;4996780;28;20041;-80
2023/02/02 09:24:27;;;;;;;11.50;7.20;;;11.00;58.20;;;;;;4998707;28;20045;-82
2023/02/02 09:26:53;;;;;;;12.50;8.05;;;11.10;58.10;;;;;;4997285;28;20433;-80
2023/02/02 09:29:20;;;;;;;13.48;8.13;;;11.10;58.00;;;;;;4998602;28;20404;-80
2023/02/02 09:31:46;;;;;;;13.23;7.95;;;11.10;58.00;;;;;;5015493;28;20512;-80
2023/02/02 09:34:14;;;;;;;13.05;7.70;;;11.20;58.00;;;;;;4998061;28;20037;-80
2023/02/02 09:36:41;;;;;;;10.80;6.97;;;11.20;57.90;;;;;;4983552;28;20762;-81
2023/02/02 09:39:09;;;;;;;13.25;8.00;;;11.30;57.90;;;;;;4999460;28;20030;-82
2023/02/02 09:41:39;;;;;;;11.82;7.25;;;11.30;57.80;;;;;;4998234;28;20038;-81
2023/02/02 09:44:26;;;;;;;13.77;7.78;;;11.30;57.90;;;;;;5000201;28;20038;-80
2023/02/02 09:47:17;;;;;;;11.15;7.32;;;11.30;57.80;;;;;;4996913;28;20084;-82
2023/02/02 09:50:05;;;;;;;13.43;8.18;;;11.40;57.90;;;;;;4985940;28;20057;-82
2023/02/02 09:52:41;;;;;;;12.10;7.50;;;11.40;57.70;;;;;;4999565;28;20034;-83
2023/02/02 09:55:15;;;;;;;12.98;8.05;;;11.50;57.70;;;;;;4998242;28;20532;-82
2023/02/02 09:57:47;;;;;;;12.20;7.18;;;11.50;57.70;;;;;;4998769;28;20033;-81
2023/02/02 10:00:36;;;;;;;12.55;7.75;;;11.50;57.60;;;;;;4997650;28;20026;-81
2023/02/02 10:03:29;;;;;;;12.63;8.52;;;11.60;57.60;;;;;;5013865;28;20041;-80
2023/02/02 10:06:15;;;;;;;13.00;8.20;;;11.60;57.50;;;;;;5012220;28;20061;-82
2023/02/02 10:09:00;;;;;;;11.70;7.50;;;11.60;57.40;;;;;;4997752;28;20084;-82
2023/02/02 10:11:43;;;;;;;12.57;7.75;;;11.70;57.40;;;;;;5016323;28;20474;-82
2023/02/02 10:14:30;;;;;;;11.25;7.45;;;11.70;57.50;;;;;;4998544;28;20069;-82
2023/02/02 10:17:05;;;;;;;13.32;8.23;;;11.70;57.30;;;;;;4998717;28;20048;-80
2023/02/02 10:19:33;;;;;;;11.38;7.57;;;11.70;57.30;;;;;;4997928;28;20042;-83
2023/02/02 10:22:17;;;;;;;10.65;7.13;;;11.70;57.20;;;;;;4999951;28;20041;-82
2023/02/02 10:24:43;;;;;;;12.45;7.90;;;11.80;57.10;;;;;;4994797;28;20041;-82
2023/02/02 10:27:36;;;;;;;11.43;7.47;;;11.80;57.10;;;;;;4997124;28;20395;-82
2023/02/02 10:30:17;;;;;;;13.32;8.40;;;11.80;57.00;;;;;;4980167;28;20062;-82
2023/02/02 10:33:09;;;;;;;10.18;6.82;;;11.80;56.90;;;;;;5018724;28;20037;-82
2023/02/02 10:35:48;;;;;;;11.30;7.60;;;11.90;56.90;;;;;;4968725;28;20085;-82
2023/02/02 10:38:23;;;;;;;11.20;7.75;;;11.90;56.80;;;;;;4994491;28;20714;-82
2023/02/02 10:41:14;;;;;;;11.60;7.32;;;11.90;56.80;;;;;;4984035;28;20060;-83
2023/02/02 10:44:16;;;;;;;11.30;7.30;;;11.90;56.70;;;;;;5001135;28;20057;-83
2023/02/02 10:46:50;;;;;;;11.25;7.82;;;11.90;56.60;;;;;;4981162;28;20547;-82
2023/02/02 10:49:27;;;;;;;11.05;7.72;;;12.00;56.60;;;;;;4997265;28;20065;-82
2023/02/02 10:51:57;;;;;;;9.27;6.50;;;12.00;56.60;;;;;;4999241;28;20168;-82
2023/02/02 10:54:41;;;;;;;9.77;6.90;;;12.00;56.60;;;;;;5017010;28;20026;-82
2023/02/02 10:57:11;;;;;;;11.45;7.05;;;12.00;56.70;;;;;;5002732;28;20501;-82
2023/02/02 10:59:49;;;;;;;9.45;6.50;;;12.00;56.70;;;;;;5001463;28;20034;-82
2023/02/02 11:02:15;;;;;;;12.43;7.43;;;12.10;57.30;;;;;;4996379;28;20455;-82
2023/02/02 11:07:25;;;;;;;9.43;6.85;;;12.10;56.50;;;;;;4992231;28;20112;-82
2023/02/02 11:09:52;;;;;;;9.30;6.03;;;12.10;56.50;;;;;;5017750;28;20046;-82
2023/02/02 11:12:44;;;;;;;9.57;6.80;;;12.10;56.50;;;;;;5005867;28;20140;-82
2023/02/02 11:15:27;;;;;;;10.32;7.32;;;12.20;56.50;;;;;;5001177;28;20514;-82
2023/02/02 11:17:53;;;;;;;10.80;7.35;;;12.20;56.50;;;;;;5000755;28;20046;-82
2023/02/02 11:20:37;;;;;;;12.80;6.85;;;12.20;56.30;;;;;;5002031;28;20124;-82
2023/02/02 11:23:06;;;;;;;10.00;6.50;;;12.20;56.40;;;;;;4988014;28;20038;-82
2023/02/02 11:25:35;;;;;;;8.70;5.80;;;12.20;56.40;;;;;;5000089;28;20030;-81
2023/02/02 11:28:18;;;;;;;10.88;6.57;;;12.30;56.70;;;;;;5000289;28;20529;-81
2023/02/02 11:30:51;;;;;;;9.43;6.68;;;12.30;56.90;;;;;;5001813;28;20044;-83
2023/02/02 11:33:33;;;;;;;10.55;7.20;;;12.30;57.10;;;;;;5000905;28;20120;-83
2023/02/02 11:36:05;;;;;;;9.45;6.85;;;12.30;56.70;;;;;;5001463;28;20080;-81
2023/02/02 11:38:31;;;;;;;9.57;6.93;;;12.30;56.10;;;;;;4987925;28;20073;-82
2023/02/02 11:41:09;;;;;;;10.05;6.78;;;12.30;56.10;;;;;;4989660;28;21258;-84
2023/02/02 11:43:46;;;;;;;11.35;6.78;;;12.30;56.10;;;;;;4996807;28;20034;-85
2023/02/02 11:46:33;;;;;;;9.60;6.57;;;12.30;56.00;;;;;;4980936;28;20650;-82
2023/02/02 11:49:17;;;;;;;9.88;6.88;;;12.30;56.00;;;;;;4983282;28;20038;-82
2023/02/02 11:51:56;;;;;;;9.82;6.88;;;12.30;56.00;;;;;;4991920;28;20038;-86
2023/02/02 11:54:28;;;;;;;10.23;6.85;;;12.40;56.00;;;;;;5010817;28;20096;-88
2023/02/02 11:56:57;;;;;;;10.65;7.28;;;12.40;56.00;;;;;;5006310;28;20046;-87
2023/02/02 11:59:33;;;;;;;10.38;7.05;;;12.40;56.10;;;;;;5009600;28;20050;-81
2023/02/02 12:02:12;;;;;;;10.27;6.70;;;12.40;56.20;;;;;;4975436;28;20061;-84
2023/02/02 12:04:39;;;;;;;12.73;7.25;;;12.40;56.30;;;;;;5010065;28;20038;-83
2023/02/02 12:07:31;;;;;;;11.68;7.45;;;12.40;56.30;;;;;;5008357;28;20041;-84
2023/02/02 12:10:05;;;;;;;10.02;6.57;;;12.40;56.30;;;;;;4990401;28;20065;-86
2023/02/02 12:12:31;;;;;;;10.35;6.68;;;12.40;56.20;;;;;;5004423;28;20038;-86
2023/02/02 12:15:07;;;;;;;10.88;6.95;;;12.40;56.20;;;;;;4992332;28;20041;-87
2023/02/02 12:17:43;;;;;;;11.02;6.85;;;12.40;56.30;;;;;;5010207;28;20065;-86
2023/02/02 12:20:38;;;;;;;11.27;7.05;;;12.40;56.20;;;;;;5023670;28;20478;-85
2023/02/02 12:23:35;;;;;;;12.00;7.60;;;12.40;56.20;;;;;;4994599;28;20137;-90
2023/02/02 12:26:19;;;;;;;9.98;6.65;;;12.40;56.20;;;;;;4988307;28;20031;-88
2023/02/02 12:29:12;;;;;;;11.50;7.05;;;12.40;56.30;;;;;;4995633;28;20061;-86
2023/02/02 12:31:58;;;;;;;12.32;7.53;;;12.40;56.30;;;;;;4998976;28;20168;-85
2023/02/02 12:34:43;;;;;;;10.90;7.22;;;12.40;56.30;;;;;;5007883;28;20038;-86
2023/02/02 12:37:34;;;;;;;11.77;7.28;;;12.40;56.40;;;;;;4974157;28;20034;-87
2023/02/02 12:40:37;;;;;;;11.40;6.85;;;12.40;56.30;;;;;;5005886;28;20041;-87
2023/02/02 12:43:14;;;;;;;13.25;7.57;;;12.40;56.40;;;;;;4989601;28;20034;-86
2023/02/02 12:45:53;;;;;;;9.77;6.43;;;12.40;56.50;;;;;;5006070;28;20038;-85
2023/02/02 12:48:42;;;;;;;12.57;8.15;;;12.30;56.30;;;;;;4993712;28;20038;-86
2023/02/02 12:51:34;;;;;;;11.75;7.47;;;12.40;56.20;;;;;;4992662;28;20042;-84
2023/02/02 12:54:29;;;;;;;11.40;7.53;;;12.40;56.20;;;;;;5001480;28;20124;-83
2023/02/02 12:57:01;;;;;;;11.75;7.85;;;12.40;56.10;;;;;;4985976;28;20046;-82
2023/02/02 12:59:56;;;;;;;12.65;8.10;;;12.40;56.00;;;;;;5006288;28;20049;-82
2023/02/02 13:02:53;;;;;;;12.85;7.78;;;12.30;56.10;;;;;;4954576;28;20068;-85
2023/02/02 13:05:39;;;;;;;11.55;7.03;;;12.40;56.20;;;;;;4994187;28;20041;-86
2023/02/02 13:11:53;;;;;;;12.82;7.90;;;12.30;56.00;;;;;;4988709;28;20695;-85
2023/02/02 13:14:34;;;;;;;14.52;8.15;;;12.30;55.90;;;;;;4980512;28;20042;-82